sensor_id;sensor_type;location;lat;lon;timestamp;P1;durP1;ratioP1;P2;durP2;ratioP2
42670;SDS011;28283;55.426;37.756;2022-11-09T00:01:35;27.77;;;14.03;;
42670;SDS011;28283;55.426;37.756;2022-11-09T00:06:36;21.75;;;13.25;;
42670;SDS011;28283;55.426;37.756;2022-11-09T00:11:37;24.70;;;13.43;;
42670;SDS011;28283;55.426;37.756;2022-11-09T00:16:38;24.60;;;14.75;;
42670;SDS011;28283;55.426;37.756;2022-11-09T00:21:38;14.23;;;8.23;;
42670;SDS011;28283;55.426;37.756;2022-11-09T00:26:39;26.03;;;14.90;;
42670;SDS011;28283;55.426;37.756;2022-11-09T00:31:40;23.48;;;13.88;;
42670;SDS011;28283;55.426;37.756;2022-11-09T00:36:41;26.73;;;15.32;;
42670;SDS011;28283;55.426;37.756;2022-11-09T00:41:41;21.00;;;13.70;;
42670;SDS011;28283;55.426;37.756;2022-11-09T00:46:42;25.73;;;14.60;;
42670;SDS011;28283;55.426;37.756;2022-11-09T00:51:43;31.75;;;17.88;;
42670;SDS011;28283;55.426;37.756;2022-11-09T00:56:44;26.00;;;13.97;;
42670;SDS011;28283;55.426;37.756;2022-11-09T01:01:45;28.50;;;15.53;;
42670;SDS011;28283;55.426;37.756;2022-11-09T01:06:45;23.50;;;13.98;;
42670;SDS011;28283;55.426;37.756;2022-11-09T01:11:46;28.40;;;15.03;;
42670;SDS011;28283;55.426;37.756;2022-11-09T01:16:47;31.60;;;16.50;;
42670;SDS011;28283;55.426;37.756;2022-11-09T01:21:47;34.17;;;17.37;;
42670;SDS011;28283;55.426;37.756;2022-11-09T01:26:48;34.03;;;16.60;;
42670;SDS011;28283;55.426;37.756;2022-11-09T01:31:49;20.93;;;14.27;;
42670;SDS011;28283;55.426;37.756;2022-11-09T01:36:50;28.87;;;15.97;;
42670;SDS011;28283;55.426;37.756;2022-11-09T01:41:51;35.00;;;17.92;;
42670;SDS011;28283;55.426;37.756;2022-11-09T01:47:03;34.47;;;18.47;;
42670;SDS011;28283;55.426;37.756;2022-11-09T01:52:27;26.80;;;17.05;;
42670;SDS011;28283;55.426;37.756;2022-11-09T01:57:33;31.35;;;17.92;;
42670;SDS011;28283;55.426;37.756;2022-11-09T02:02:43;34.15;;;17.48;;
42670;SDS011;28283;55.426;37.756;2022-11-09T02:07:47;34.45;;;17.85;;
42670;SDS011;28283;55.426;37.756;2022-11-09T02:17:53;33.92;;;18.00;;
42670;SDS011;28283;55.426;37.756;2022-11-09T02:22:55;33.10;;;18.58;;
42670;SDS011;28283;55.426;37.756;2022-11-09T02:27:56;31.23;;;17.13;;
42670;SDS011;28283;55.426;37.756;2022-11-09T02:32:57;34.87;;;18.60;;
42670;SDS011;28283;55.426;37.756;2022-11-09T02:37:58;34.40;;;18.50;;
42670;SDS011;28283;55.426;37.756;2022-11-09T02:42:59;31.40;;;17.77;;
42670;SDS011;28283;55.426;37.756;2022-11-09T02:48:00;38.45;;;18.38;;
42670;SDS011;28283;55.426;37.756;2022-11-09T02:53:01;34.08;;;19.17;;
42670;SDS011;28283;55.426;37.756;2022-11-09T02:58:02;38.17;;;19.05;;
42670;SDS011;28283;55.426;37.756;2022-11-09T03:03:03;34.97;;;19.33;;
42670;SDS011;28283;55.426;37.756;2022-11-09T03:08:05;29.88;;;16.77;;
42670;SDS011;28283;55.426;37.756;2022-11-09T03:13:05;31.98;;;17.80;;
42670;SDS011;28283;55.426;37.756;2022-11-09T03:18:06;28.60;;;16.27;;
42670;SDS011;28283;55.426;37.756;2022-11-09T03:23:07;27.00;;;14.77;;
42670;SDS011;28283;55.426;37.756;2022-11-09T03:28:10;29.00;;;15.45;;
42670;SDS011;28283;55.426;37.756;2022-11-09T03:33:10;24.77;;;14.67;;
42670;SDS011;28283;55.426;37.756;2022-11-09T03:38:13;30.20;;;15.82;;
42670;SDS011;28283;55.426;37.756;2022-11-09T03:43:14;30.90;;;16.40;;
42670;SDS011;28283;55.426;37.756;2022-11-09T03:48:14;31.02;;;15.85;;
42670;SDS011;28283;55.426;37.756;2022-11-09T03:53:15;9.90;;;5.80;;
42670;SDS011;28283;55.426;37.756;2022-11-09T03:58:16;8.17;;;5.43;;
42670;SDS011;28283;55.426;37.756;2022-11-09T04:03:16;11.77;;;7.00;;
42670;SDS011;28283;55.426;37.756;2022-11-09T04:08:17;20.63;;;12.40;;
42670;SDS011;28283;55.426;37.756;2022-11-09T04:13:18;20.45;;;10.35;;
42670;SDS011;28283;55.426;37.756;2022-11-09T04:18:19;20.83;;;12.53;;
42670;SDS011;28283;55.426;37.756;2022-11-09T04:23:19;20.43;;;13.20;;
42670;SDS011;28283;55.426;37.756;2022-11-09T04:28:20;22.63;;;14.07;;
42670;SDS011;28283;55.426;37.756;2022-11-09T04:33:21;21.60;;;11.70;;
42670;SDS011;28283;55.426;37.756;2022-11-09T04:38:21;26.23;;;14.03;;
42670;SDS011;28283;55.426;37.756;2022-11-09T04:43:22;29.93;;;15.93;;
42670;SDS011;28283;55.426;37.756;2022-11-09T04:48:23;28.17;;;15.50;;
42670;SDS011;28283;55.426;37.756;2022-11-09T04:53:24;33.60;;;15.63;;
42670;SDS011;28283;55.426;37.756;2022-11-09T04:58:24;24.20;;;12.93;;
42670;SDS011;28283;55.426;37.756;2022-11-09T05:03:25;17.27;;;9.77;;
42670;SDS011;28283;55.426;37.756;2022-11-09T05:08:26;25.65;;;13.65;;
42670;SDS011;28283;55.426;37.756;2022-11-09T05:13:27;24.83;;;14.03;;
42670;SDS011;28283;55.426;37.756;2022-11-09T05:18:27;20.50;;;12.15;;
42670;SDS011;28283;55.426;37.756;2022-11-09T05:23:30;27.90;;;14.88;;
42670;SDS011;28283;55.426;37.756;2022-11-09T05:28:49;21.27;;;13.18;;
42670;SDS011;28283;55.426;37.756;2022-11-09T05:33:52;26.88;;;13.60;;
42670;SDS011;28283;55.426;37.756;2022-11-09T05:38:53;22.30;;;13.95;;
42670;SDS011;28283;55.426;37.756;2022-11-09T05:43:54;25.55;;;13.23;;
42670;SDS011;28283;55.426;37.756;2022-11-09T05:48:55;15.80;;;9.40;;
42670;SDS011;28283;55.426;37.756;2022-11-09T05:53:55;22.50;;;12.23;;
42670;SDS011;28283;55.426;37.756;2022-11-09T05:58:56;12.13;;;5.97;;
42670;SDS011;28283;55.426;37.756;2022-11-09T06:03:57;14.63;;;8.53;;
42670;SDS011;28283;55.426;37.756;2022-11-09T06:08:57;17.17;;;9.23;;
42670;SDS011;28283;55.426;37.756;2022-11-09T06:13:58;18.92;;;11.05;;
42670;SDS011;28283;55.426;37.756;2022-11-09T06:18:59;19.57;;;11.93;;
42670;SDS011;28283;55.426;37.756;2022-11-09T06:24:00;20.80;;;11.68;;
42670;SDS011;28283;55.426;37.756;2022-11-09T06:29:01;19.00;;;11.20;;
42670;SDS011;28283;55.426;37.756;2022-11-09T06:34:02;22.08;;;12.35;;
42670;SDS011;28283;55.426;37.756;2022-11-09T06:39:03;20.58;;;13.48;;
42670;SDS011;28283;55.426;37.756;2022-11-09T06:44:04;24.65;;;13.18;;
42670;SDS011;28283;55.426;37.756;2022-11-09T06:49:05;14.25;;;8.00;;
42670;SDS011;28283;55.426;37.756;2022-11-09T06:54:06;21.57;;;12.40;;
42670;SDS011;28283;55.426;37.756;2022-11-09T06:59:07;17.73;;;10.47;;
42670;SDS011;28283;55.426;37.756;2022-11-09T07:04:08;8.80;;;6.35;;
42670;SDS011;28283;55.426;37.756;2022-11-09T07:09:12;22.42;;;13.07;;
42670;SDS011;28283;55.426;37.756;2022-11-09T07:14:12;23.87;;;13.63;;
42670;SDS011;28283;55.426;37.756;2022-11-09T07:19:13;21.80;;;13.23;;
42670;SDS011;28283;55.426;37.756;2022-11-09T07:24:14;25.20;;;14.43;;
42670;SDS011;28283;55.426;37.756;2022-11-09T07:29:15;24.63;;;13.97;;
42670;SDS011;28283;55.426;37.756;2022-11-09T07:34:16;25.90;;;14.57;;
42670;SDS011;28283;55.426;37.756;2022-11-09T07:39:16;24.23;;;13.83;;
42670;SDS011;28283;55.426;37.756;2022-11-09T07:44:17;25.00;;;12.97;;
42670;SDS011;28283;55.426;37.756;2022-11-09T07:49:18;23.17;;;13.33;;
42670;SDS011;28283;55.426;37.756;2022-11-09T07:54:18;25.02;;;14.45;;
42670;SDS011;28283;55.426;37.756;2022-11-09T07:59:19;23.30;;;13.67;;
42670;SDS011;28283;55.426;37.756;2022-11-09T08:04:20;24.77;;;15.03;;
42670;SDS011;28283;55.426;37.756;2022-11-09T08:09:21;26.40;;;15.33;;
42670;SDS011;28283;55.426;37.756;2022-11-09T08:14:21;28.53;;;14.13;;
42670;SDS011;28283;55.426;37.756;2022-11-09T08:19:22;23.97;;;13.10;;
42670;SDS011;28283;55.426;37.756;2022-11-09T08:24:23;24.80;;;13.63;;
42670;SDS011;28283;55.426;37.756;2022-11-09T08:29:23;27.17;;;14.90;;
42670;SDS011;28283;55.426;37.756;2022-11-09T08:34:24;29.97;;;14.10;;
42670;SDS011;28283;55.426;37.756;2022-11-09T08:39:25;29.80;;;14.93;;
42670;SDS011;28283;55.426;37.756;2022-11-09T08:44:26;26.65;;;15.45;;
42670;SDS011;28283;55.426;37.756;2022-11-09T08:49:27;28.70;;;14.37;;
42670;SDS011;28283;55.426;37.756;2022-11-09T08:54:27;24.83;;;14.63;;
42670;SDS011;28283;55.426;37.756;2022-11-09T08:59:28;26.02;;;13.05;;
42670;SDS011;28283;55.426;37.756;2022-11-09T09:04:29;22.37;;;11.00;;
42670;SDS011;28283;55.426;37.756;2022-11-09T09:09:32;20.73;;;12.18;;
42670;SDS011;28283;55.426;37.756;2022-11-09T09:14:34;22.75;;;12.73;;
42670;SDS011;28283;55.426;37.756;2022-11-09T09:19:35;24.73;;;13.07;;
42670;SDS011;28283;55.426;37.756;2022-11-09T09:24:35;28.42;;;13.52;;
42670;SDS011;28283;55.426;37.756;2022-11-09T09:29:39;28.10;;;14.25;;
42670;SDS011;28283;55.426;37.756;2022-11-09T09:34:40;31.08;;;15.48;;
42670;SDS011;28283;55.426;37.756;2022-11-09T09:39:41;34.67;;;16.43;;
42670;SDS011;28283;55.426;37.756;2022-11-09T09:44:44;37.08;;;16.67;;
42670;SDS011;28283;55.426;37.756;2022-11-09T09:49:57;30.73;;;15.52;;
42670;SDS011;28283;55.426;37.756;2022-11-09T10:00:17;32.20;;;14.00;;
42670;SDS011;28283;55.426;37.756;2022-11-09T10:10:52;32.60;;;15.25;;
42670;SDS011;28283;55.426;37.756;2022-11-09T10:26:47;22.45;;;13.70;;
42670;SDS011;28283;55.426;37.756;2022-11-09T10:31:52;26.13;;;13.45;;
42670;SDS011;28283;55.426;37.756;2022-11-09T10:42:18;23.05;;;13.77;;
42670;SDS011;28283;55.426;37.756;2022-11-09T10:47:19;25.97;;;13.50;;
42670;SDS011;28283;55.426;37.756;2022-11-09T10:52:31;27.42;;;15.43;;
42670;SDS011;28283;55.426;37.756;2022-11-09T10:57:39;26.88;;;14.07;;
42670;SDS011;28283;55.426;37.756;2022-11-09T11:03:14;27.60;;;14.35;;
42670;SDS011;28283;55.426;37.756;2022-11-09T11:08:25;29.48;;;14.13;;
42670;SDS011;28283;55.426;37.756;2022-11-09T11:13:28;26.42;;;15.52;;
42670;SDS011;28283;55.426;37.756;2022-11-09T11:18:28;26.50;;;14.70;;
42670;SDS011;28283;55.426;37.756;2022-11-09T11:23:33;25.33;;;15.13;;
42670;SDS011;28283;55.426;37.756;2022-11-09T11:28:41;24.30;;;13.35;;
42670;SDS011;28283;55.426;37.756;2022-11-09T11:33:45;23.80;;;14.35;;
42670;SDS011;28283;55.426;37.756;2022-11-09T11:44:17;18.15;;;12.35;;
42670;SDS011;28283;55.426;37.756;2022-11-09T11:49:50;22.38;;;12.80;;
42670;SDS011;28283;55.426;37.756;2022-11-09T12:06:06;18.10;;;12.40;;
42670;SDS011;28283;55.426;37.756;2022-11-09T12:22:35;24.02;;;12.77;;
42670;SDS011;28283;55.426;37.756;2022-11-09T12:27:59;16.13;;;11.65;;
42670;SDS011;28283;55.426;37.756;2022-11-09T12:33:25;18.25;;;11.55;;
42670;SDS011;28283;55.426;37.756;2022-11-09T12:38:36;16.20;;;9.43;;
42670;SDS011;28283;55.426;37.756;2022-11-09T12:54:14;18.15;;;11.18;;
42670;SDS011;28283;55.426;37.756;2022-11-09T13:04:29;15.43;;;9.90;;
42670;SDS011;28283;55.426;37.756;2022-11-09T13:14:34;14.38;;;8.55;;
42670;SDS011;28283;55.426;37.756;2022-11-09T13:20:00;15.65;;;10.13;;
42670;SDS011;28283;55.426;37.756;2022-11-09T13:25:45;16.05;;;12.30;;
42670;SDS011;28283;55.426;37.756;2022-11-09T13:37:33;15.75;;;10.40;;
42670;SDS011;28283;55.426;37.756;2022-11-09T13:42:34;20.50;;;13.57;;
42670;SDS011;28283;55.426;37.756;2022-11-09T13:52:47;19.00;;;13.68;;
42670;SDS011;28283;55.426;37.756;2022-11-09T13:57:52;20.90;;;14.50;;
42670;SDS011;28283;55.426;37.756;2022-11-09T14:02:59;13.57;;;8.75;;
42670;SDS011;28283;55.426;37.756;2022-11-09T14:08:03;19.13;;;13.30;;
42670;SDS011;28283;55.426;37.756;2022-11-09T14:24:14;17.65;;;12.63;;
42670;SDS011;28283;55.426;37.756;2022-11-09T14:29:20;16.35;;;10.48;;
42670;SDS011;28283;55.426;37.756;2022-11-09T14:34:22;19.20;;;13.40;;
42670;SDS011;28283;55.426;37.756;2022-11-09T14:39:27;20.00;;;12.47;;
42670;SDS011;28283;55.426;37.756;2022-11-09T14:44:35;28.00;;;15.10;;
42670;SDS011;28283;55.426;37.756;2022-11-09T14:49:41;23.20;;;14.40;;
42670;SDS011;28283;55.426;37.756;2022-11-09T14:54:42;26.55;;;15.65;;
42670;SDS011;28283;55.426;37.756;2022-11-09T14:59:44;17.30;;;9.93;;
42670;SDS011;28283;55.426;37.756;2022-11-09T15:04:52;26.60;;;15.23;;
42670;SDS011;28283;55.426;37.756;2022-11-09T15:10:03;25.70;;;16.42;;
42670;SDS011;28283;55.426;37.756;2022-11-09T15:15:18;28.60;;;16.30;;
42670;SDS011;28283;55.426;37.756;2022-11-09T15:20:26;25.20;;;15.10;;
42670;SDS011;28283;55.426;37.756;2022-11-09T15:36:00;28.83;;;15.27;;
42670;SDS011;28283;55.426;37.756;2022-11-09T15:41:18;29.10;;;16.17;;
42670;SDS011;28283;55.426;37.756;2022-11-09T15:46:33;22.55;;;15.32;;
42670;SDS011;28283;55.426;37.756;2022-11-09T15:51:38;29.58;;;16.02;;
42670;SDS011;28283;55.426;37.756;2022-11-09T15:56:40;20.90;;;12.70;;
42670;SDS011;28283;55.426;37.756;2022-11-09T16:01:41;24.08;;;15.55;;
42670;SDS011;28283;55.426;37.756;2022-11-09T16:06:42;22.97;;;14.83;;
42670;SDS011;28283;55.426;37.756;2022-11-09T16:11:47;23.98;;;12.48;;
42670;SDS011;28283;55.426;37.756;2022-11-09T16:16:52;31.05;;;16.67;;
42670;SDS011;28283;55.426;37.756;2022-11-09T16:21:56;10.48;;;7.15;;
42670;SDS011;28283;55.426;37.756;2022-11-09T16:32:00;22.20;;;13.50;;
42670;SDS011;28283;55.426;37.756;2022-11-09T16:37:02;22.88;;;16.30;;
42670;SDS011;28283;55.426;37.756;2022-11-09T16:42:06;18.75;;;15.20;;
42670;SDS011;28283;55.426;37.756;2022-11-09T16:47:10;24.58;;;14.27;;
42670;SDS011;28283;55.426;37.756;2022-11-09T16:52:12;17.95;;;13.30;;
42670;SDS011;28283;55.426;37.756;2022-11-09T16:57:29;18.73;;;13.45;;
42670;SDS011;28283;55.426;37.756;2022-11-09T17:02:36;22.33;;;12.57;;
42670;SDS011;28283;55.426;37.756;2022-11-09T17:07:37;15.27;;;12.90;;
42670;SDS011;28283;55.426;37.756;2022-11-09T17:12:39;17.55;;;10.77;;
42670;SDS011;28283;55.426;37.756;2022-11-09T17:17:41;17.70;;;13.18;;
42670;SDS011;28283;55.426;37.756;2022-11-09T17:22:42;18.02;;;9.57;;
42670;SDS011;28283;55.426;37.756;2022-11-09T17:27:46;15.25;;;11.68;;
42670;SDS011;28283;55.426;37.756;2022-11-09T17:32:46;13.93;;;10.40;;
42670;SDS011;28283;55.426;37.756;2022-11-09T17:37:47;16.30;;;11.35;;
42670;SDS011;28283;55.426;37.756;2022-11-09T17:43:07;14.70;;;10.60;;
42670;SDS011;28283;55.426;37.756;2022-11-09T17:48:26;17.88;;;10.20;;
42670;SDS011;28283;55.426;37.756;2022-11-09T17:53:27;12.83;;;7.97;;
42670;SDS011;28283;55.426;37.756;2022-11-09T17:58:28;13.85;;;10.45;;
42670;SDS011;28283;55.426;37.756;2022-11-09T18:03:32;10.95;;;5.10;;
42670;SDS011;28283;55.426;37.756;2022-11-09T18:08:35;12.43;;;8.48;;
42670;SDS011;28283;55.426;37.756;2022-11-09T18:13:37;14.85;;;9.88;;
42670;SDS011;28283;55.426;37.756;2022-11-09T18:18:38;17.33;;;9.70;;
42670;SDS011;28283;55.426;37.756;2022-11-09T18:23:39;14.37;;;10.67;;
42670;SDS011;28283;55.426;37.756;2022-11-09T18:28:41;13.20;;;6.80;;
42670;SDS011;28283;55.426;37.756;2022-11-09T18:33:42;8.93;;;6.13;;
42670;SDS011;28283;55.426;37.756;2022-11-09T18:38:44;8.18;;;5.78;;
42670;SDS011;28283;55.426;37.756;2022-11-09T18:43:45;11.40;;;5.77;;
42670;SDS011;28283;55.426;37.756;2022-11-09T18:48:52;11.93;;;9.07;;
42670;SDS011;28283;55.426;37.756;2022-11-09T18:53:53;10.35;;;7.35;;
42670;SDS011;28283;55.426;37.756;2022-11-09T18:58:54;10.43;;;6.72;;
42670;SDS011;28283;55.426;37.756;2022-11-09T19:04:08;7.70;;;6.88;;
42670;SDS011;28283;55.426;37.756;2022-11-09T19:09:17;4.43;;;3.95;;
42670;SDS011;28283;55.426;37.756;2022-11-09T19:14:28;12.65;;;7.95;;
42670;SDS011;28283;55.426;37.756;2022-11-09T19:19:32;9.18;;;6.63;;
42670;SDS011;28283;55.426;37.756;2022-11-09T19:24:33;5.88;;;3.10;;
42670;SDS011;28283;55.426;37.756;2022-11-09T19:29:40;8.15;;;4.78;;
42670;SDS011;28283;55.426;37.756;2022-11-09T19:34:41;11.67;;;7.67;;
42670;SDS011;28283;55.426;37.756;2022-11-09T19:39:45;10.82;;;6.63;;
42670;SDS011;28283;55.426;37.756;2022-11-09T19:44:46;8.55;;;5.38;;
42670;SDS011;28283;55.426;37.756;2022-11-09T19:49:47;10.83;;;7.23;;
42670;SDS011;28283;55.426;37.756;2022-11-09T19:54:48;8.77;;;4.50;;
42670;SDS011;28283;55.426;37.756;2022-11-09T19:59:49;5.22;;;3.28;;
42670;SDS011;28283;55.426;37.756;2022-11-09T20:04:50;4.15;;;3.58;;
42670;SDS011;28283;55.426;37.756;2022-11-09T20:09:51;8.40;;;5.80;;
42670;SDS011;28283;55.426;37.756;2022-11-09T20:14:52;8.90;;;6.15;;
42670;SDS011;28283;55.426;37.756;2022-11-09T20:19:54;7.38;;;6.57;;
42670;SDS011;28283;55.426;37.756;2022-11-09T20:24:55;8.00;;;6.37;;
42670;SDS011;28283;55.426;37.756;2022-11-09T20:29:56;11.45;;;5.05;;
42670;SDS011;28283;55.426;37.756;2022-11-09T20:34:58;10.00;;;5.70;;
42670;SDS011;28283;55.426;37.756;2022-11-09T20:39:59;8.40;;;5.32;;
42670;SDS011;28283;55.426;37.756;2022-11-09T20:45:00;9.60;;;6.55;;
42670;SDS011;28283;55.426;37.756;2022-11-09T20:50:01;10.23;;;7.03;;
42670;SDS011;28283;55.426;37.756;2022-11-09T20:55:02;7.53;;;5.53;;
42670;SDS011;28283;55.426;37.756;2022-11-09T21:00:03;7.55;;;6.57;;
42670;SDS011;28283;55.426;37.756;2022-11-09T21:05:04;8.00;;;3.47;;
42670;SDS011;28283;55.426;37.756;2022-11-09T21:10:07;11.48;;;7.45;;
42670;SDS011;28283;55.426;37.756;2022-11-09T21:15:08;8.60;;;6.65;;
42670;SDS011;28283;55.426;37.756;2022-11-09T21:20:10;6.03;;;4.35;;
42670;SDS011;28283;55.426;37.756;2022-11-09T21:25:12;5.68;;;4.90;;
42670;SDS011;28283;55.426;37.756;2022-11-09T21:30:32;5.47;;;4.13;;
42670;SDS011;28283;55.426;37.756;2022-11-09T21:35:32;10.40;;;6.90;;
42670;SDS011;28283;55.426;37.756;2022-11-09T21:45:47;11.13;;;7.47;;
42670;SDS011;28283;55.426;37.756;2022-11-09T21:50:48;9.60;;;6.40;;
42670;SDS011;28283;55.426;37.756;2022-11-09T21:55:49;5.87;;;5.33;;
42670;SDS011;28283;55.426;37.756;2022-11-09T22:00:50;15.70;;;8.90;;
42670;SDS011;28283;55.426;37.756;2022-11-09T22:11:00;12.32;;;5.72;;
42670;SDS011;28283;55.426;37.756;2022-11-09T22:16:12;13.38;;;9.00;;
42670;SDS011;28283;55.426;37.756;2022-11-09T22:21:12;9.73;;;6.33;;
42670;SDS011;28283;55.426;37.756;2022-11-09T22:26:13;9.43;;;6.17;;
42670;SDS011;28283;55.426;37.756;2022-11-09T22:31:14;13.48;;;8.70;;
42670;SDS011;28283;55.426;37.756;2022-11-09T22:36:15;7.57;;;5.97;;
42670;SDS011;28283;55.426;37.756;2022-11-09T22:41:16;13.10;;;6.95;;
42670;SDS011;28283;55.426;37.756;2022-11-09T22:46:17;12.60;;;9.00;;
42670;SDS011;28283;55.426;37.756;2022-11-09T22:51:18;10.87;;;7.93;;
42670;SDS011;28283;55.426;37.756;2022-11-09T22:56:19;9.52;;;6.95;;
42670;SDS011;28283;55.426;37.756;2022-11-09T23:01:20;13.20;;;11.27;;
42670;SDS011;28283;55.426;37.756;2022-11-09T23:06:21;13.45;;;7.78;;
42670;SDS011;28283;55.426;37.756;2022-11-09T23:11:23;11.18;;;6.38;;
42670;SDS011;28283;55.426;37.756;2022-11-09T23:16:24;17.02;;;10.38;;
42670;SDS011;28283;55.426;37.756;2022-11-09T23:21:26;11.25;;;7.53;;
42670;SDS011;28283;55.426;37.756;2022-11-09T23:26:29;7.85;;;6.82;;
42670;SDS011;28283;55.426;37.756;2022-11-09T23:31:31;14.88;;;10.45;;
42670;SDS011;28283;55.426;37.756;2022-11-09T23:36:32;14.67;;;11.47;;
42670;SDS011;28283;55.426;37.756;2022-11-09T23:41:32;15.63;;;11.00;;
42670;SDS011;28283;55.426;37.756;2022-11-09T23:46:33;19.10;;;11.40;;
42670;SDS011;28283;55.426;37.756;2022-11-09T23:51:33;13.37;;;8.80;;
42670;SDS011;28283;55.426;37.756;2022-11-09T23:56:34;13.87;;;11.80;;
